Time;durP1;ratioP1;P1;durP2;ratioP2;P2;SDS_P1;SDS_P2;PMS_P1;PMS_P2;Temp;Humidity;BMP_temperature;BMP_pressure;BME280_temperature;BME280_humidity;BME280_pressure;Samples;Min_cycle;Max_cycle;Signal;HPM_P1;HPM_P2
2023/06/13 02:12:26;;;;;;;8.13;4.50;;;8.50;99.90;;;;;;1952044;72;27346;-89
2023/06/13 02:15:15;;;;;;;13.07;4.40;;;8.50;99.90;;;;;;1923311;73;25862;-89
2023/06/13 02:18:04;;;;;;;7.67;4.20;;;8.50;99.90;;;;;;1929371;72;25797;-89
2023/06/13 02:20:52;;;;;;;6.00;4.13;;;8.50;99.90;;;;;;1934461;72;25273;-89
2023/06/13 02:23:41;;;;;;;6.90;4.40;;;8.50;99.90;;;;;;1915531;72;25207;-89
2023/06/13 02:29:09;;;;;;;7.17;4.40;;;8.60;99.90;;;;;;1897653;74;27077;-88
2023/06/13 03:22:00;;;;;;;7.07;4.00;;;9.70;99.90;;;;;;1900657;75;25239;-88
2023/06/13 03:24:50;;;;;;;5.07;3.50;;;10.30;99.90;;;;;;1901997;75;25311;-88
2023/06/13 03:27:42;;;;;;;6.47;4.07;;;10.70;99.90;;;;;;1881837;75;25274;-88
2023/06/13 03:30:38;;;;;;;4.80;3.63;;;11.10;99.90;;;;;;1895805;75;25757;-88
2023/06/13 03:33:29;;;;;;;4.80;3.30;;;11.60;99.90;;;;;;1898038;75;25213;-89
2023/06/13 03:36:20;;;;;;;5.30;3.50;;;12.20;99.90;;;;;;1893325;75;25233;-89
2023/06/13 03:42:10;;;;;;;6.10;3.83;;;13.00;99.90;;;;;;1943028;72;27008;-89
2023/06/13 03:45:05;;;;;;;5.60;3.83;;;13.40;99.90;;;;;;1892664;73;25248;-89
2023/06/13 03:48:01;;;;;;;6.40;3.73;;;13.90;99.90;;;;;;1863247;75;25212;-88
2023/06/13 03:51:13;;;;;;;5.23;3.30;;;14.40;99.90;;;;;;1830607;76;25246;-89
2023/06/13 03:57:54;;;;;;;3.67;3.20;;;15.20;99.90;;;;;;1871367;74;25229;-89
2023/06/13 04:00:45;;;;;;;4.00;3.27;;;15.40;99.90;;;;;;1860753;76;25170;-89
2023/06/13 04:58:07;;;;;;;2.90;2.70;;;22.20;99.90;;;;;;1934350;74;26928;-89
2023/06/13 05:00:59;;;;;;;4.90;2.63;;;22.00;99.90;;;;;;1860330;75;25254;-89
2023/06/13 05:03:51;;;;;;;3.47;2.60;;;22.10;99.90;;;;;;1878846;74;25289;-89
2023/06/13 05:06:40;;;;;;;2.87;2.47;;;22.40;99.90;;;;;;1877525;74;25246;-89
2023/06/13 05:09:30;;;;;;;8.90;2.57;;;22.60;99.90;;;;;;1883072;73;25275;-89
2023/06/13 05:12:19;;;;;;;3.13;2.40;;;23.00;99.90;;;;;;1883919;75;25269;-88
2023/06/13 05:15:11;;;;;;;3.57;2.47;;;23.00;99.90;;;;;;1857451;75;25347;-90
2023/06/13 05:17:59;;;;;;;5.23;2.50;;;23.40;99.90;;;;;;1872877;76;25197;-91
2023/06/13 05:20:48;;;;;;;4.93;2.50;;;23.30;99.90;;;;;;1872736;75;25334;-88
2023/06/13 05:23:38;;;;;;;4.43;2.40;;;23.00;99.90;;;;;;1867271;76;25268;-90
2023/06/13 06:09:35;;;;;;;2.80;2.40;;;22.10;99.90;;;;;;1938798;72;27146;-89
2023/06/13 06:28:37;;;;;;;2.70;1.97;;;22.60;99.90;;;;;;1944342;72;27030;-89
2023/06/13 06:31:27;;;;;;;2.40;2.20;;;22.70;99.90;;;;;;1927636;73;25294;-90
2023/06/13 06:34:15;;;;;;;2.63;2.40;;;22.70;99.90;;;;;;1923457;73;25964;-90
2023/06/13 06:39:56;;;;;;;3.80;2.40;;;22.30;99.90;;;;;;1953700;72;27443;-89
2023/06/13 06:43:04;;;;;;;2.73;2.20;;;22.30;99.90;;;;;;1907250;74;25270;-90
2023/06/13 06:49:12;;;;;;;5.17;2.40;;;22.50;99.90;;;;;;1938927;72;27011;-89
2023/06/13 06:52:02;;;;;;;5.10;2.33;;;22.30;99.90;;;;;;1932129;72;25285;-90
2023/06/13 06:57:43;;;;;;;7.03;2.20;;;22.20;99.90;;;;;;1959667;72;26998;-89
2023/06/13 07:00:32;;;;;;;5.13;2.10;;;22.50;99.90;;;;;;1947485;73;25408;-90
2023/06/13 07:03:23;;;;;;;6.50;2.30;;;22.50;99.90;;;;;;1923260;73;25913;-90
2023/06/13 07:08:58;;;;;;;2.43;2.20;;;22.70;99.90;;;;;;1957325;72;27848;-90
2023/06/13 07:11:47;;;;;;;5.40;2.40;;;23.10;99.90;;;;;;1937112;73;25240;-90
2023/06/13 07:14:36;;;;;;;3.17;2.10;;;23.20;99.90;;;;;;1885418;75;25415;-90
2023/06/13 07:17:25;;;;;;;2.33;2.13;;;23.20;99.90;;;;;;1914720;73;25228;-90
2023/06/13 07:20:14;;;;;;;4.30;2.17;;;23.20;99.90;;;;;;1916268;73;25827;-91
2023/06/13 07:23:02;;;;;;;3.13;2.70;;;23.40;99.90;;;;;;1877794;75;25242;-91
2023/06/13 07:25:52;;;;;;;4.03;1.90;;;23.40;99.90;;;;;;1916415;73;25315;-90
2023/06/13 07:28:53;;;;;;;3.07;2.00;;;23.10;99.90;;;;;;1915193;73;25347;-91
2023/06/13 07:31:42;;;;;;;4.63;2.47;;;22.70;99.90;;;;;;1932544;73;25553;-90
2023/06/13 07:34:30;;;;;;;2.40;2.23;;;22.60;99.90;;;;;;1911178;73;25246;-91
2023/06/13 07:37:19;;;;;;;2.43;2.23;;;22.40;99.90;;;;;;1923737;73;25253;-91
2023/06/13 07:40:10;;;;;;;3.47;2.47;;;22.50;99.90;;;;;;1929360;73;25794;-91
2023/06/13 07:42:59;;;;;;;2.77;2.50;;;22.50;99.90;;;;;;1891660;74;25250;-91
2023/06/13 07:45:48;;;;;;;4.97;2.60;;;22.40;99.90;;;;;;1883938;75;25792;-91
2023/06/13 07:48:36;;;;;;;2.90;2.60;;;22.40;99.90;;;;;;1884338;75;25862;-91
2023/06/13 07:51:26;;;;;;;5.43;2.60;;;22.20;99.90;;;;;;1893362;75;25222;-91
2023/06/13 07:57:07;;;;;;;6.33;2.13;;;22.50;99.90;;;;;;1955985;71;27029;-90
2023/06/13 08:13:26;;;;;;;5.30;1.80;;;22.60;99.90;;;;;;1855385;75;27113;-90
2023/06/13 08:19:09;;;;;;;2.63;1.97;;;22.40;99.90;;;;;;1948368;72;28107;-90
2023/06/13 08:24:48;;;;;;;2.27;2.07;;;22.90;99.90;;;;;;1940716;72;27584;-90
2023/06/13 08:27:41;;;;;;;2.43;2.20;;;22.90;99.90;;;;;;1902863;75;25687;-90
2023/06/13 08:34:06;;;;;;;4.03;2.13;;;23.40;99.90;;;;;;1992484;71;27472;-91
2023/06/13 09:03:28;;;;;;;2.33;2.13;;;23.80;99.90;;;;;;1981751;71;27401;-90
2023/06/13 09:08:58;;;;;;;2.30;2.10;;;25.20;99.90;;;;;;1871466;75;27783;-91
2023/06/13 09:11:48;;;;;;;8.67;2.70;;;25.30;99.90;;;;;;1795945;79;26332;-91
2023/06/13 09:14:37;;;;;;;7.50;2.27;;;25.00;99.90;;;;;;1788605;79;25359;-90
2023/06/13 09:17:26;;;;;;;2.63;2.10;;;24.90;99.90;;;;;;1794759;79;26476;-91
2023/06/13 09:20:15;;;;;;;3.27;2.30;;;24.50;99.90;;;;;;1789123;78;26916;-91
2023/06/13 09:23:05;;;;;;;5.17;2.00;;;24.70;99.90;;;;;;1797158;79;26277;-91
2023/06/13 09:25:56;;;;;;;3.87;2.40;;;24.50;99.90;;;;;;1799222;79;25270;-91
2023/06/13 09:28:47;;;;;;;5.27;2.40;;;24.60;99.90;;;;;;1788836;79;25265;-91
2023/06/13 09:31:38;;;;;;;3.87;2.40;;;24.80;99.90;;;;;;1751099;81;26350;-91
2023/06/13 09:34:28;;;;;;;2.37;2.17;;;25.00;99.90;;;;;;1750300;81;26342;-91
2023/06/13 09:37:17;;;;;;;4.37;2.00;;;24.90;99.90;;;;;;1732548;82;25284;-91
2023/06/13 09:40:09;;;;;;;2.47;2.27;;;24.50;99.90;;;;;;1798838;78;26346;-91
2023/06/13 09:43:02;;;;;;;4.80;2.50;;;24.60;99.90;;;;;;1773276;81;25185;-90
2023/06/13 09:45:51;;;;;;;5.13;2.20;;;24.70;99.90;;;;;;1759114;81;26361;-90
2023/06/13 09:48:41;;;;;;;2.83;2.40;;;24.70;99.90;;;;;;1749518;81;25278;-92
2023/06/13 09:54:23;;;;;;;6.67;2.30;;;24.40;99.90;;;;;;1957116;72;26932;-91
2023/06/13 09:59:58;;;;;;;7.50;3.00;;;25.00;99.90;;;;;;1945979;72;27088;-91
2023/06/13 10:02:47;;;;;;;2.73;2.53;;;25.00;99.90;;;;;;1935050;73;26561;-90
2023/06/13 10:05:36;;;;;;;3.10;2.80;;;25.00;99.90;;;;;;1932345;72;25344;-91
2023/06/13 10:08:26;;;;;;;6.60;2.50;;;25.10;99.90;;;;;;1912318;72;26344;-90
2023/06/13 10:11:18;;;;;;;7.60;2.40;;;25.20;99.90;;;;;;1940440;73;26691;-90
2023/06/13 10:14:10;;;;;;;2.77;2.20;;;25.20;99.90;;;;;;1943843;72;26177;-91
2023/06/13 10:17:03;;;;;;;5.70;2.40;;;25.00;99.90;;;;;;1931481;72;26205;-91
2023/06/13 10:19:55;;;;;;;6.07;2.60;;;25.40;99.90;;;;;;1935166;73;26180;-91
2023/06/13 10:22:44;;;;;;;3.83;2.30;;;25.70;99.90;;;;;;1933001;73;26278;-91
2023/06/13 10:29:01;;;;;;;3.53;2.50;;;26.10;99.90;;;;;;1946385;71;26860;-91
2023/06/13 10:31:56;;;;;;;3.53;2.43;;;25.70;99.90;;;;;;1962226;72;26832;-91
2023/06/13 10:35:03;;;;;;;2.67;2.33;;;25.40;99.90;;;;;;1947388;72;26181;-90
2023/06/13 10:54:14;;;;;;;3.67;2.43;;;25.30;99.90;;;;;;1943939;72;26983;-90
2023/06/13 10:57:08;;;;;;;2.50;2.30;;;25.30;99.90;;;;;;1909116;72;26317;-91
2023/06/13 10:59:57;;;;;;;5.23;2.63;;;25.30;99.90;;;;;;1943304;73;26261;-90
2023/06/13 11:02:48;;;;;;;3.40;2.27;;;25.20;99.90;;;;;;1919222;72;25358;-90
2023/06/13 11:05:41;;;;;;;2.87;2.57;;;25.30;99.90;;;;;;1889884;75;25624;-91
2023/06/13 11:08:32;;;;;;;4.87;2.40;;;25.80;99.90;;;;;;1853060;75;26631;-91
2023/06/13 11:11:24;;;;;;;4.90;2.60;;;26.10;99.90;;;;;;1936314;72;26326;-91
2023/06/13 11:14:14;;;;;;;4.17;2.37;;;26.50;99.00;;;;;;1921433;73;26833;-92
2023/06/13 11:17:05;;;;;;;5.83;2.57;;;26.70;98.00;;;;;;1924162;73;26387;-91
2023/06/13 11:19:56;;;;;;;3.43;2.33;;;26.30;98.50;;;;;;1887763;75;26254;-91
2023/06/13 11:22:47;;;;;;;4.40;2.40;;;26.30;99.00;;;;;;1866713;76;26269;-90
2023/06/13 11:25:38;;;;;;;5.80;2.62;;;26.20;99.50;;;;;;1861958;76;26231;-92
2023/06/13 11:28:31;;;;;;;3.70;2.60;;;26.40;97.70;;;;;;1892708;75;26246;-91
2023/06/13 11:31:21;;;;;;;3.33;2.23;;;26.50;99.70;;;;;;1876805;75;26831;-91
2023/06/13 11:58:31;;;;;;;2.43;2.23;;;26.60;98.90;;;;;;1859403;74;28221;-91
2023/06/13 12:26:35;;;;;;;2.55;2.35;;;25.20;98.80;;;;;;2041450;69;28046;-90
2023/06/13 12:29:27;;;;;;;4.73;2.40;;;25.40;99.90;;;;;;1981461;72;26159;-90
2023/06/13 12:35:57;;;;;;;3.13;2.23;;;25.30;99.90;;;;;;1918833;73;25271;-90
2023/06/13 12:52:17;;;;;;;4.10;2.47;;;26.20;99.90;;;;;;1969873;71;28537;-90
2023/06/13 12:57:46;;;;;;;4.70;2.33;;;24.80;99.90;;;;;;1945917;72;27716;-90
2023/06/13 13:00:34;;;;;;;3.23;2.30;;;25.20;99.90;;;;;;1942109;73;26288;-91
2023/06/13 13:03:23;;;;;;;5.33;2.30;;;25.10;99.90;;;;;;1941693;73;26284;-90
2023/06/13 13:06:12;;;;;;;5.43;2.17;;;24.90;99.90;;;;;;1932255;73;26239;-90
2023/06/13 13:09:01;;;;;;;5.07;2.40;;;24.80;99.90;;;;;;1949094;73;26313;-91
2023/06/13 13:11:50;;;;;;;5.33;2.70;;;24.60;99.90;;;;;;1942729;73;25278;-92
2023/06/13 13:14:39;;;;;;;6.17;2.50;;;24.40;99.90;;;;;;1949686;73;25295;-91
2023/06/13 13:17:29;;;;;;;10.10;2.40;;;24.10;99.90;;;;;;1936679;73;25263;-90
2023/06/13 13:20:17;;;;;;;4.53;2.10;;;24.20;99.90;;;;;;1937809;73;25202;-91
2023/06/13 13:23:06;;;;;;;4.30;2.30;;;24.10;99.90;;;;;;1945358;72;25486;-92
2023/06/13 13:25:54;;;;;;;3.60;2.30;;;23.90;99.90;;;;;;1927374;72;25243;-90
2023/06/13 13:28:43;;;;;;;4.57;2.33;;;23.60;99.90;;;;;;1930248;73;25301;-91
2023/06/13 13:31:33;;;;;;;2.83;2.60;;;23.70;99.90;;;;;;1949517;73;25245;-90
2023/06/13 13:34:22;;;;;;;3.87;2.40;;;23.70;99.90;;;;;;1926083;73;25296;-89
2023/06/13 13:50:41;;;;;;;4.37;2.20;;;23.40;99.90;;;;;;1952138;72;28563;-90
2023/06/13 13:53:29;;;;;;;5.53;2.13;;;24.10;99.90;;;;;;1933175;73;25241;-91
2023/06/13 13:56:18;;;;;;;3.70;2.30;;;24.20;99.90;;;;;;1901404;73;25268;-90
2023/06/13 13:59:07;;;;;;;6.17;2.40;;;24.00;99.90;;;;;;1914162;74;25222;-90
2023/06/13 14:01:55;;;;;;;5.03;2.40;;;23.80;99.90;;;;;;1912380;73;25812;-90
2023/06/13 14:04:44;;;;;;;12.10;2.70;;;23.70;99.90;;;;;;1907437;74;25247;-91
2023/06/13 14:37:04;;;;;;;3.07;2.17;;;25.20;99.80;;;;;;1951807;72;28029;-91
2023/06/13 14:39:54;;;;;;;3.20;2.17;;;25.30;98.00;;;;;;1918352;73;26239;-91
2023/06/13 14:42:42;;;;;;;4.70;2.47;;;25.50;96.70;;;;;;1898344;74;25359;-91
2023/06/13 14:45:31;;;;;;;3.77;2.37;;;25.80;98.50;;;;;;1903923;75;26261;-90
2023/06/13 14:48:21;;;;;;;3.47;2.40;;;25.80;97.20;;;;;;1893735;75;26327;-91
2023/06/13 14:51:10;;;;;;;3.90;1.97;;;26.00;96.80;;;;;;1873570;75;26301;-91
2023/06/13 14:54:02;;;;;;;4.85;2.12;;;26.00;95.10;;;;;;1866701;76;26277;-91
2023/06/13 14:56:51;;;;;;;2.73;2.10;;;26.10;97.20;;;;;;1846546;76;26285;-90
2023/06/13 14:59:40;;;;;;;4.77;2.20;;;26.00;93.00;;;;;;1859160;76;26957;-91
2023/06/13 15:02:28;;;;;;;6.05;2.60;;;26.20;96.10;;;;;;1855722;76;26814;-91
2023/06/13 15:05:17;;;;;;;7.37;2.30;;;26.20;96.90;;;;;;1850859;76;26227;-91
2023/06/13 15:08:06;;;;;;;4.67;2.13;;;25.90;94.80;;;;;;1848612;76;26268;-90
2023/06/13 15:10:55;;;;;;;3.67;2.30;;;25.80;95.10;;;;;;1855856;76;26334;-91
2023/06/13 15:29:42;;;;;;;5.77;2.40;;;25.10;96.10;;;;;;1958430;72;28055;-91
2023/06/13 15:32:31;;;;;;;6.10;2.60;;;25.30;95.70;;;;;;1925782;73;26224;-89
2023/06/13 15:35:20;;;;;;;2.37;2.20;;;25.50;95.60;;;;;;1927189;73;26213;-91
2023/06/13 15:38:10;;;;;;;5.00;2.30;;;25.30;95.20;;;;;;1915332;73;26260;-89
2023/06/13 15:41:00;;;;;;;6.13;2.20;;;25.00;97.40;;;;;;1918770;73;25261;-90
2023/06/13 15:43:49;;;;;;;2.47;2.17;;;24.80;98.30;;;;;;1916037;73;26281;-90
2023/06/13 15:49:37;;;;;;;8.93;2.33;;;24.90;99.90;;;;;;1971084;71;28069;-90
2023/06/13 16:08:48;;;;;;;7.90;2.40;;;24.90;99.90;;;;;;1960589;72;27072;-89
2023/06/13 16:11:37;;;;;;;2.23;2.07;;;25.00;98.40;;;;;;1922046;73;26297;-89
2023/06/13 16:14:27;;;;;;;3.93;2.23;;;25.10;98.20;;;;;;1921797;73;26322;-90
2023/06/13 16:46:23;;;;;;;3.80;2.30;;;24.40;96.30;;;;;;1956999;72;26948;-90
2023/06/13 16:49:12;;;;;;;5.10;2.20;;;24.50;99.10;;;;;;1914988;72;25929;-89
2023/06/13 16:52:03;;;;;;;9.13;2.30;;;24.60;99.60;;;;;;1914740;75;25315;-90
2023/06/13 16:54:51;;;;;;;4.43;2.17;;;24.70;98.40;;;;;;1912096;72;25254;-90
2023/06/13 16:57:40;;;;;;;2.27;2.07;;;24.80;99.60;;;;;;1903989;73;25218;-89
2023/06/13 17:00:30;;;;;;;2.20;2.00;;;24.80;99.20;;;;;;1877213;75;25289;-89
2023/06/13 17:03:18;;;;;;;2.23;2.00;;;24.80;97.80;;;;;;1874005;75;25273;-89
2023/06/13 17:06:08;;;;;;;4.10;2.33;;;24.80;99.90;;;;;;1890405;75;25339;-90
2023/06/13 17:08:56;;;;;;;2.80;2.10;;;24.70;99.90;;;;;;1877166;75;25499;-89
2023/06/13 17:11:44;;;;;;;4.00;2.00;;;24.70;99.90;;;;;;1864332;76;26323;-89
2023/06/13 17:14:34;;;;;;;3.47;2.10;;;24.50;99.90;;;;;;1868734;75;25253;-89
2023/06/13 17:33:17;;;;;;;5.60;2.50;;;24.30;99.90;;;;;;1942555;72;27760;-90
2023/06/13 17:36:08;;;;;;;2.60;2.30;;;24.10;99.90;;;;;;1884149;75;25244;-89
2023/06/13 17:41:38;;;;;;;2.53;2.00;;;23.40;99.90;;;;;;1915843;72;27120;-90
2023/06/13 17:57:57;;;;;;;3.13;2.10;;;23.00;99.90;;;;;;1873737;75;27175;-89
2023/06/13 18:03:32;;;;;;;6.43;2.10;;;22.80;99.90;;;;;;1943543;72;27423;-90
2023/06/13 18:06:21;;;;;;;3.10;2.17;;;22.90;99.90;;;;;;1912154;73;25249;-90
2023/06/13 18:09:13;;;;;;;2.23;2.03;;;23.00;99.90;;;;;;1921495;72;25626;-89
2023/06/13 18:12:05;;;;;;;3.27;2.23;;;23.00;99.90;;;;;;1935541;73;25226;-90
2023/06/13 18:14:56;;;;;;;2.43;2.20;;;23.20;99.90;;;;;;1946158;72;25270;-89
2023/06/13 18:17:46;;;;;;;3.93;2.10;;;23.20;99.90;;;;;;1923931;72;25230;-90
2023/06/13 18:20:37;;;;;;;5.57;2.60;;;23.40;99.90;;;;;;1941914;72;25184;-89
2023/06/13 18:26:09;;;;;;;3.37;2.30;;;23.50;99.90;;;;;;1926894;72;27133;-90
2023/06/13 18:28:57;;;;;;;3.17;2.20;;;23.40;99.90;;;;;;1903268;75;25238;-90
2023/06/13 18:31:46;;;;;;;3.77;2.30;;;23.20;99.90;;;;;;1882785;75;25259;-90
2023/06/13 18:34:35;;;;;;;6.10;2.37;;;23.20;99.90;;;;;;1888269;75;25331;-91
2023/06/13 18:37:25;;;;;;;2.33;2.13;;;23.30;99.90;;;;;;1909718;75;25623;-91
2023/06/13 18:40:15;;;;;;;2.73;2.53;;;23.40;99.90;;;;;;1884533;73;25289;-91
2023/06/13 18:43:04;;;;;;;2.40;2.20;;;23.40;99.90;;;;;;1882182;75;25277;-91
2023/06/13 18:45:54;;;;;;;5.20;2.20;;;23.50;99.90;;;;;;1880048;75;25250;-91
2023/06/13 18:48:42;;;;;;;8.27;2.37;;;23.60;99.90;;;;;;1880402;76;25258;-89
2023/06/13 18:54:23;;;;;;;4.00;2.17;;;23.70;99.90;;;;;;1949543;72;27618;-89
2023/06/13 18:57:12;;;;;;;2.40;2.20;;;23.80;99.90;;;;;;1924581;73;25239;-89
2023/06/13 19:00:02;;;;;;;2.90;2.43;;;24.00;99.90;;;;;;1943646;72;25266;-89
2023/06/13 19:02:57;;;;;;;4.67;2.47;;;24.10;99.90;;;;;;1914281;73;25245;-90
2023/06/13 19:08:37;;;;;;;4.77;3.03;;;23.70;99.90;;;;;;1946233;72;27139;-89
2023/06/13 19:11:27;;;;;;;26.03;2.90;;;23.40;99.90;;;;;;1875329;76;25257;-89
2023/06/13 19:43:44;;;;;;;5.47;2.47;;;20.60;99.90;;;;;;1937913;72;26921;-89
2023/06/13 19:46:33;;;;;;;2.63;2.43;;;20.30;99.90;;;;;;1892685;75;25296;-89
2023/06/13 19:49:22;;;;;;;4.47;2.40;;;20.20;99.90;;;;;;1876154;73;25242;-88
2023/06/13 19:52:13;;;;;;;4.70;2.53;;;20.10;99.90;;;;;;1902147;73;25237;-89
2023/06/13 19:55:03;;;;;;;6.97;2.97;;;20.00;99.90;;;;;;1906636;74;25301;-89
2023/06/13 19:57:53;;;;;;;4.10;2.97;;;19.80;99.90;;;;;;1908390;73;25293;-89
2023/06/13 20:00:42;;;;;;;4.63;2.80;;;19.70;99.90;;;;;;1892857;73;25670;-89
2023/06/13 20:03:31;;;;;;;4.30;2.90;;;19.70;99.90;;;;;;1896963;73;25252;-89
2023/06/13 20:06:20;;;;;;;3.60;2.50;;;19.70;99.90;;;;;;1907251;73;26207;-88
2023/06/13 20:09:10;;;;;;;3.27;2.37;;;19.60;99.90;;;;;;1899338;73;25264;-89
2023/06/13 20:11:59;;;;;;;4.13;2.43;;;19.50;99.90;;;;;;1901113;73;25251;-89
2023/06/13 20:14:50;;;;;;;11.60;3.17;;;19.40;99.90;;;;;;1911226;73;25346;-89
2023/06/13 20:17:39;;;;;;;5.40;2.70;;;19.10;99.90;;;;;;1893462;75;25323;-88
2023/06/13 20:23:20;;;;;;;4.47;2.47;;;18.90;99.90;;;;;;1939170;72;27133;-88
2023/06/13 20:26:10;;;;;;;2.67;2.47;;;18.80;99.90;;;;;;1916152;73;25308;-89
2023/06/13 20:28:58;;;;;;;4.73;2.87;;;18.70;99.90;;;;;;1925417;73;25865;-89
2023/06/13 20:32:40;;;;;;;7.97;2.60;;;18.60;99.90;;;;;;1914895;73;25335;-88
2023/06/13 20:35:29;;;;;;;8.97;3.00;;;18.50;99.90;;;;;;1919450;73;25251;-88
2023/06/13 20:38:20;;;;;;;7.83;3.03;;;18.50;99.90;;;;;;1916803;73;25234;-88
2023/06/13 20:41:09;;;;;;;4.27;2.73;;;18.50;99.90;;;;;;1913998;73;25250;-89
2023/06/13 20:43:58;;;;;;;7.67;3.03;;;18.50;99.90;;;;;;1910616;75;25338;-89
2023/06/13 20:46:48;;;;;;;3.07;2.50;;;18.30;99.90;;;;;;1903693;75;25213;-89
2023/06/13 20:49:38;;;;;;;6.83;2.90;;;18.20;99.90;;;;;;1882120;74;25306;-88
2023/06/13 20:52:28;;;;;;;5.67;2.60;;;18.30;99.90;;;;;;1902650;74;25748;-88
2023/06/13 20:55:20;;;;;;;5.40;2.97;;;18.20;99.90;;;;;;1879875;75;25252;-88
2023/06/13 20:58:10;;;;;;;2.80;2.50;;;18.30;99.90;;;;;;1889317;75;25739;-88
2023/06/13 21:01:00;;;;;;;8.43;2.80;;;18.30;99.90;;;;;;1907371;74;25800;-89
2023/06/13 21:03:50;;;;;;;5.67;2.90;;;18.30;99.90;;;;;;1883876;75;25263;-89
2023/06/13 21:20:24;;;;;;;7.33;3.30;;;18.40;99.90;;;;;;1947291;72;29656;-88
2023/06/13 21:23:14;;;;;;;5.97;3.30;;;17.90;99.90;;;;;;1915093;73;26446;-88
2023/06/13 21:26:04;;;;;;;8.20;3.60;;;17.90;99.90;;;;;;1860630;76;25246;-88
2023/06/13 21:28:54;;;;;;;6.67;3.20;;;17.80;99.90;;;;;;1932138;73;25269;-89
2023/06/13 21:31:44;;;;;;;6.53;3.30;;;17.90;99.90;;;;;;1909084;74;25299;-88
2023/06/13 21:34:33;;;;;;;8.97;3.07;;;17.80;99.90;;;;;;1915368;73;25238;-88
2023/06/13 21:37:23;;;;;;;6.93;3.47;;;17.80;99.90;;;;;;1878704;75;25249;-89
2023/06/13 21:40:14;;;;;;;8.57;3.50;;;17.60;99.90;;;;;;1926173;73;25805;-89
2023/06/13 21:43:04;;;;;;;6.70;4.00;;;17.70;99.90;;;;;;1924020;73;25717;-89
2023/06/13 21:45:54;;;;;;;20.17;3.70;;;17.60;99.90;;;;;;1914891;73;25290;-89
2023/06/13 21:48:44;;;;;;;8.90;3.70;;;17.50;99.90;;;;;;1917246;73;25250;-89
2023/06/13 21:51:35;;;;;;;10.47;3.90;;;17.40;99.90;;;;;;1917082;73;25236;-89
2023/06/13 21:54:25;;;;;;;9.63;3.97;;;17.30;99.90;;;;;;1921634;73;25268;-89
2023/06/13 21:57:16;;;;;;;4.47;3.50;;;17.20;99.90;;;;;;1918937;73;25623;-89
2023/06/13 22:00:14;;;;;;;8.87;3.83;;;17.10;99.90;;;;;;1915944;73;25274;-89
2023/06/13 22:05:47;;;;;;;5.33;4.07;;;17.00;99.90;;;;;;1900750;74;29830;-89
2023/06/13 22:11:26;;;;;;;6.77;4.17;;;16.90;99.90;;;;;;1936466;74;28649;-89
2023/06/13 22:14:17;;;;;;;7.83;4.10;;;17.00;99.90;;;;;;1892530;74;25284;-89
2023/06/13 22:17:08;;;;;;;9.10;4.33;;;16.80;99.90;;;;;;1883152;75;25750;-89
2023/06/13 22:19:59;;;;;;;10.20;4.90;;;16.80;99.90;;;;;;1897054;74;25208;-89
2023/06/13 22:22:52;;;;;;;7.13;5.00;;;16.50;99.90;;;;;;1911530;75;25269;-88
2023/06/13 22:25:46;;;;;;;8.83;4.37;;;16.40;99.90;;;;;;1892226;75;25254;-89
2023/06/13 22:28:40;;;;;;;8.83;4.90;;;16.50;99.90;;;;;;1887679;75;25225;-89
2023/06/13 22:31:29;;;;;;;9.80;4.83;;;16.60;99.90;;;;;;1892929;75;25233;-89
2023/06/13 22:34:18;;;;;;;7.57;5.23;;;16.40;99.90;;;;;;1903805;75;26795;-89
2023/06/13 22:37:11;;;;;;;12.20;5.73;;;16.20;99.90;;;;;;1881830;75;25289;-89
2023/06/13 22:40:00;;;;;;;14.83;4.97;;;16.10;99.90;;;;;;1903312;75;25215;-90
2023/06/13 22:42:50;;;;;;;10.70;5.20;;;16.00;99.90;;;;;;1850932;76;25937;-89
2023/06/13 22:45:41;;;;;;;8.83;5.47;;;16.10;99.90;;;;;;1860350;76;25277;-89
2023/06/13 22:48:30;;;;;;;13.40;5.83;;;16.00;99.90;;;;;;1867289;76;25319;-89
2023/06/13 22:54:11;;;;;;;12.47;5.60;;;15.50;99.90;;;;;;1938096;74;26946;-88
2023/06/13 22:57:01;;;;;;;8.87;5.50;;;15.40;99.90;;;;;;1906506;75;25307;-88
2023/06/13 22:59:50;;;;;;;7.30;5.80;;;15.40;99.90;;;;;;1881476;74;25816;-87
2023/06/13 23:05:32;;;;;;;17.33;5.93;;;15.20;99.90;;;;;;1930085;72;27103;-88
2023/06/13 23:08:22;;;;;;;8.57;5.83;;;15.20;99.90;;;;;;1920060;73;25414;-88
2023/06/13 23:11:12;;;;;;;14.47;5.70;;;15.00;99.90;;;;;;1914445;75;25277;-88
2023/06/13 23:14:01;;;;;;;9.37;5.90;;;14.90;99.90;;;;;;1914828;75;25210;-88
2023/06/13 23:16:50;;;;;;;8.97;5.70;;;14.80;99.90;;;;;;1914609;73;25304;-88
2023/06/13 23:19:40;;;;;;;9.77;6.20;;;14.70;99.90;;;;;;1870680;75;25793;-88
2023/06/13 23:22:28;;;;;;;7.90;5.63;;;14.60;99.90;;;;;;1919340;73;25270;-88
2023/06/13 23:25:21;;;;;;;13.87;6.30;;;14.50;99.90;;;;;;1920201;73;25508;-88
2023/06/13 23:28:08;;;;;;;9.70;5.90;;;14.50;99.90;;;;;;1895436;75;25268;-88
2023/06/13 23:30:57;;;;;;;8.47;5.63;;;14.40;99.90;;;;;;1929942;73;25275;-88
2023/06/13 23:33:48;;;;;;;10.67;5.90;;;14.40;99.90;;;;;;1930399;73;25271;-88
2023/06/13 23:36:42;;;;;;;8.60;6.23;;;14.30;99.90;;;;;;1919499;73;25200;-88
2023/06/13 23:39:30;;;;;;;12.20;6.30;;;14.30;99.90;;;;;;1936363;73;25213;-88
